createdAt,value
2023-04-16T00:03:24.458Z,8.31
2023-04-16T00:18:30.505Z,8.25
2023-04-16T00:33:36.250Z,8.19
2023-04-16T00:48:43.764Z,8.19
2023-04-16T01:03:50.500Z,8.00
2023-04-16T01:18:56.166Z,8.00
2023-04-16T01:34:01.838Z,8.06
2023-04-16T01:49:08.216Z,8.06
2023-04-16T02:04:14.329Z,8.13
2023-04-16T02:19:19.871Z,8.13
2023-04-16T02:34:25.960Z,8.19
2023-04-16T02:49:32.159Z,8.13
2023-04-16T03:04:37.868Z,8.25
2023-04-16T03:19:43.509Z,8.38
2023-04-16T03:34:49.178Z,8.50
2023-04-16T03:49:55.068Z,8.25
2023-04-16T04:05:00.850Z,8.38
2023-04-16T04:20:07.672Z,8.31
2023-04-16T04:35:13.596Z,8.19
2023-04-16T04:50:19.303Z,8.19
2023-04-16T05:05:25.094Z,8.38
2023-04-16T05:20:31.141Z,8.25
2023-04-16T05:35:36.845Z,7.94
2023-04-16T05:50:42.701Z,8.13
2023-04-16T06:05:48.237Z,8.06
2023-04-16T06:20:53.697Z,8.06
2023-04-16T06:35:59.185Z,8.00
2023-04-16T06:51:04.957Z,8.25
2023-04-16T07:06:10.680Z,7.88
2023-04-16T07:21:16.445Z,7.88
2023-04-16T07:36:22.002Z,7.75
2023-04-16T07:51:27.805Z,7.94
2023-04-16T08:06:33.597Z,8.25
2023-04-16T08:21:39.216Z,8.56
2023-04-16T08:36:44.876Z,8.44
2023-04-16T08:51:53.499Z,8.50
2023-04-16T09:07:01.518Z,8.38
2023-04-16T09:22:06.983Z,8.38
2023-04-16T09:37:19.461Z,8.75
2023-04-16T09:52:26.304Z,9.25
2023-04-16T10:07:35.055Z,9.63
2023-04-16T10:22:41.054Z,9.38
2023-04-16T10:37:47.705Z,9.50
2023-04-16T10:53:19.644Z,9.50
2023-04-16T11:08:26.297Z,9.50
2023-04-16T11:23:32.116Z,9.00
2023-04-16T11:38:41.283Z,9.50
2023-04-16T11:54:04.585Z,9.38
2023-04-16T12:09:28.769Z,9.44
2023-04-16T12:24:38.224Z,10.31
2023-04-16T12:39:43.689Z,10.44
2023-04-16T12:54:49.167Z,10.19
2023-04-16T13:09:54.892Z,10.94
2023-04-16T13:25:00.419Z,10.63
2023-04-16T13:40:06.801Z,11.31
2023-04-16T13:55:14.271Z,10.50
2023-04-16T14:10:20.247Z,10.38
2023-04-16T14:25:25.834Z,10.31
2023-04-16T14:40:31.511Z,11.44
2023-04-16T14:55:37.040Z,10.25
2023-04-16T15:10:43.715Z,11.31
2023-04-16T15:25:49.206Z,13.13
2023-04-16T15:40:54.827Z,13.25
2023-04-16T15:56:00.425Z,11.81
2023-04-16T16:11:06.360Z,11.13
2023-04-16T16:26:11.916Z,10.38
2023-04-16T16:41:17.545Z,10.00
2023-04-16T16:56:23.201Z,9.69
2023-04-16T17:11:29.630Z,9.38
2023-04-16T17:26:35.563Z,9.31
2023-04-16T17:41:41.127Z,9.31
2023-04-16T17:56:47.043Z,9.00
2023-04-16T18:11:52.650Z,9.00
2023-04-16T18:26:58.281Z,8.94
2023-04-16T18:42:04.220Z,9.06
2023-04-16T18:57:09.759Z,9.06
2023-04-16T19:12:15.318Z,9.06
2023-04-16T19:27:20.744Z,8.88
2023-04-16T19:42:27.563Z,8.88
2023-04-16T19:57:33.266Z,9.00
2023-04-16T20:12:39.319Z,9.00
2023-04-16T20:27:45.028Z,9.06
2023-04-16T20:42:52.375Z,8.94
2023-04-16T20:57:58.155Z,8.94
2023-04-16T21:13:03.843Z,8.69
2023-04-16T21:28:09.427Z,8.69
2023-04-16T21:43:15.045Z,8.63
2023-04-16T21:58:20.669Z,8.63
2023-04-16T22:13:26.814Z,8.69
2023-04-16T22:28:32.615Z,8.63
2023-04-16T22:43:38.450Z,8.56
2023-04-16T22:58:43.962Z,8.63
2023-04-16T23:13:49.630Z,8.56
2023-04-16T23:28:55.258Z,8.56
2023-04-16T23:44:01.046Z,8.38
2023-04-16T23:59:06.492Z,8.50
